Time;durP1;ratioP1;P1;durP2;ratioP2;P2;SDS_P1;SDS_P2;PMS_P1;PMS_P2;Temp;Humidity;BMP_temperature;BMP_pressure;BME280_temperature;BME280_humidity;BME280_pressure;Samples;Min_cycle;Max_cycle;Signal;HPM_P1;HPM_P2
2021/05/10 00:00:46;;;;;;;;;;;;;;;22.27;42.30;101854.09;5038962;28;883;-56
2021/05/10 00:03:12;;;;;;;;;;;;;;;22.18;42.53;101848.34;5038895;28;808;-56
2021/05/10 00:05:38;;;;;;;;;;;;;;;22.15;42.65;101848.91;5038059;28;946;-58
2021/05/10 00:08:04;;;;;;;;;;;;;;;22.27;42.27;101848.56;5038597;28;732;-54
2021/05/10 00:10:29;;;;;;;;;;;;;;;22.25;42.35;101848.03;5038142;28;1914;-57
2021/05/10 00:12:55;;;;;;;;;;;;;;;22.16;42.72;101842.28;5038044;28;883;-57
2021/05/10 00:15:20;;;;;;;;;;;;;;;22.24;42.33;101840.81;5038552;28;827;-58
2021/05/10 00:17:46;;;;;;;;;;;;;;;22.14;42.57;101846.44;5038153;28;777;-58
2021/05/10 00:20:12;;;;;;;;;;;;;;;22.22;42.36;101841.13;5037521;28;1462;-58
2021/05/10 00:22:37;;;;;;;;;;;;;;;22.21;42.39;101842.22;5037188;28;1417;-57
2021/05/10 00:25:03;;;;;;;;;;;;;;;22.09;42.63;101850.06;5038694;28;790;-57
2021/05/10 00:27:28;;;;;;;;;;;;;;;21.86;43.29;101846.84;5037922;28;859;-57
2021/05/10 00:29:54;;;;;;;;;;;;;;;21.48;43.95;101840.03;5038047;28;1922;-57
2021/05/10 00:32:19;;;;;;;;;;;;;;;21.60;43.90;101843.38;5038146;28;1192;-56
2021/05/10 00:34:44;;;;;;;;;;;;;;;21.66;43.77;101844.19;5038097;28;772;-56
2021/05/10 00:37:10;;;;;;;;;;;;;;;21.82;43.41;101837.44;5038120;28;998;-57
2021/05/10 00:39:35;;;;;;;;;;;;;;;21.61;43.80;101838.66;5037559;28;762;-57
2021/05/10 00:42:01;;;;;;;;;;;;;;;21.55;43.73;101832.31;5037668;28;551;-57
2021/05/10 00:44:26;;;;;;;;;;;;;;;21.38;44.34;101835.38;5037853;28;875;-57
2021/05/10 00:46:54;;;;;;;;;;;;;;;21.57;43.67;101835.59;5037780;28;876;-58
2021/05/10 00:49:23;;;;;;;;;;;;;;;21.57;43.67;101835.59;5037474;28;776;-57
2021/05/10 00:51:48;;;;;;;;;;;;;;;21.28;44.37;101836.22;5037736;28;1910;-57
2021/05/10 00:54:14;;;;;;;;;;;;;;;21.58;43.72;101828.16;5037426;28;827;-57
2021/05/10 00:56:39;;;;;;;;;;;;;;;21.43;44.08;101827.03;5037348;28;823;-57
2021/05/10 00:59:05;;;;;;;;;;;;;;;21.29;44.31;101824.03;5037582;28;828;-57
2021/05/10 01:01:31;;;;;;;;;;;;;;;21.32;44.40;101819.88;5037449;28;972;-57
2021/05/10 01:03:56;;;;;;;;;;;;;;;21.49;43.98;101825.06;5037299;28;867;-57
2021/05/10 01:06:22;;;;;;;;;;;;;;;21.33;43.97;101827.88;5037122;28;994;-57
2021/05/10 01:08:47;;;;;;;;;;;;;;;21.34;43.94;101824.03;5037138;28;803;-57
2021/05/10 01:11:13;;;;;;;;;;;;;;;21.37;43.99;101822.63;5037240;28;1909;-56
2021/05/10 01:13:38;;;;;;;;;;;;;;;21.51;43.68;101825.63;5037676;28;828;-58
2021/05/10 01:16:04;;;;;;;;;;;;;;;21.33;43.94;101813.25;5037151;28;819;-59
2021/05/10 01:18:29;;;;;;;;;;;;;;;21.45;43.77;101827.59;5036893;28;773;-58
2021/05/10 01:20:55;;;;;;;;;;;;;;;21.36;44.03;101815.44;5036686;28;1158;-59
2021/05/10 01:23:20;;;;;;;;;;;;;;;21.39;43.89;101820.41;5035812;28;835;-58
2021/05/10 01:25:46;;;;;;;;;;;;;;;21.36;43.89;101816.28;5035861;28;991;-57
2021/05/10 01:28:11;;;;;;;;;;;;;;;21.27;44.00;101817.13;5037324;28;855;-59
2021/05/10 01:30:38;;;;;;;;;;;;;;;21.38;43.96;101818.78;5036722;28;1914;-58
2021/05/10 01:33:04;;;;;;;;;;;;;;;21.27;43.98;101806.06;5036629;28;824;-58
2021/05/10 01:35:32;;;;;;;;;;;;;;;21.34;44.00;101810.19;5036453;28;979;-58
2021/05/10 01:37:57;;;;;;;;;;;;;;;21.27;44.01;101803.31;5037054;28;760;-58
2021/05/10 01:40:22;;;;;;;;;;;;;;;21.50;43.52;101805.44;5036662;28;732;-59
2021/05/10 01:42:48;;;;;;;;;;;;;;;21.30;43.89;101799.97;5036768;28;792;-58
2021/05/10 01:45:14;;;;;;;;;;;;;;;21.39;43.63;101798.28;5037006;28;923;-59
2021/05/10 01:47:39;;;;;;;;;;;;;;;21.47;43.41;101803.22;5036722;28;713;-58
2021/05/10 01:50:23;;;;;;;;;;;;;;;21.30;43.95;101800.78;5036095;28;1911;-59
2021/05/10 01:52:48;;;;;;;;;;;;;;;21.34;43.82;101801.06;5036034;28;776;-59
2021/05/10 01:55:14;;;;;;;;;;;;;;;21.44;43.55;101805.75;5036310;28;816;-59
2021/05/10 01:57:40;;;;;;;;;;;;;;;21.36;43.64;101796.06;5036413;28;753;-59
2021/05/10 02:00:06;;;;;;;;;;;;;;;21.31;43.86;101790.56;5037126;28;855;-59
2021/05/10 02:02:32;;;;;;;;;;;;;;;21.23;44.09;101796.69;5018420;28;1416;-58
2021/05/10 02:05:07;;;;;;;;;;;;;;;21.06;44.38;101795.03;5036540;28;895;-58
2021/05/10 02:07:33;;;;;;;;;;;;;;;21.36;43.63;101796.91;5016615;28;848;-58
2021/05/10 02:09:58;;;;;;;;;;;;;;;21.22;44.03;101795.81;5016157;28;1977;-58
2021/05/10 02:12:23;;;;;;;;;;;;;;;21.14;44.08;101796.41;5016375;28;824;-58
2021/05/10 02:14:49;;;;;;;;;;;;;;;21.19;43.89;101799.97;5016697;28;804;-58
2021/05/10 02:17:14;;;;;;;;;;;;;;;21.20;44.00;101795.28;5016307;28;520;-58
2021/05/10 02:19:40;;;;;;;;;;;;;;;21.29;43.80;101792.78;5016217;28;859;-57
2021/05/10 02:22:05;;;;;;;;;;;;;;;21.38;43.49;101796.63;5033127;28;1024;-58
2021/05/10 02:24:31;;;;;;;;;;;;;;;21.23;43.89;101793.91;5036328;28;740;-58
2021/05/10 02:26:56;;;;;;;;;;;;;;;21.06;44.33;101795.03;5036152;28;815;-57
2021/05/10 02:29:21;;;;;;;;;;;;;;;21.05;44.36;101793.38;5036149;28;838;-59
2021/05/10 02:31:47;;;;;;;;;;;;;;;21.07;44.23;101782.88;5035782;28;1977;-59
2021/05/10 02:34:12;;;;;;;;;;;;;;;21.15;43.98;101792.53;5017943;28;1409;-59
2021/05/10 02:36:38;;;;;;;;;;;;;;;21.18;43.80;101794.72;5035685;28;1007;-59
2021/05/10 02:39:03;;;;;;;;;;;;;;;21.15;44.14;101793.38;5035879;28;822;-59
2021/05/10 02:41:29;;;;;;;;;;;;;;;21.18;44.16;101803.03;5035745;28;831;-59
2021/05/10 02:43:54;;;;;;;;;;;;;;;21.20;43.98;101798.88;5036098;28;847;-59
2021/05/10 02:46:20;;;;;;;;;;;;;;;21.23;43.90;101807.75;5035720;28;771;-59
2021/05/10 02:48:45;;;;;;;;;;;;;;;21.10;44.24;101798.09;5035545;28;760;-59
2021/05/10 02:51:10;;;;;;;;;;;;;;;21.03;44.33;101799.19;5035415;28;1979;-59
2021/05/10 02:53:36;;;;;;;;;;;;;;;21.03;44.36;101801.16;5017798;28;887;-57
2021/05/10 02:56:01;;;;;;;;;;;;;;;21.05;44.19;101809.97;5035623;28;669;-59
2021/05/10 02:58:27;;;;;;;;;;;;;;;21.06;44.41;101811.63;5035684;28;824;-59
2021/05/10 03:00:52;;;;;;;;;;;;;;;21.12;44.03;101807.75;5035846;28;761;-58
2021/05/10 03:03:18;;;;;;;;;;;;;;;21.08;44.13;101809.41;5037580;28;795;-58
2021/05/10 03:05:43;;;;;;;;;;;;;;;21.07;44.22;101812.47;5039323;28;1010;-58
2021/05/10 03:08:09;;;;;;;;;;;;;;;21.29;43.65;101815.72;5039555;28;744;-59
2021/05/10 03:10:34;;;;;;;;;;;;;;;21.41;43.28;101815.44;5039135;28;1910;-57
2021/05/10 03:12:59;;;;;;;;;;;;;;;20.99;44.14;101805.56;5039690;28;748;-61
2021/05/10 03:15:25;;;;;;;;;;;;;;;21.00;44.54;101821.06;5039638;28;823;-48
2021/05/10 03:17:51;;;;;;;;;;;;;;;21.11;44.06;101827.38;5039239;28;760;-47
2021/05/10 03:20:17;;;;;;;;;;;;;;;21.10;44.33;101826.56;5038777;28;1012;-46
2021/05/10 03:22:43;;;;;;;;;;;;;;;21.00;44.26;101826.59;5021824;28;1220;-58
2021/05/10 03:25:08;;;;;;;;;;;;;;;21.11;44.08;101822.69;5039383;28;795;-59
2021/05/10 03:27:40;;;;;;;;;;;;;;;21.35;43.46;101824.88;5039266;28;888;-44
2021/05/10 03:30:10;;;;;;;;;;;;;;;21.15;44.05;101818.28;5039361;28;1989;-44
2021/05/10 03:32:35;;;;;;;;;;;;;;;21.33;43.49;101827.88;5038993;28;761;-52
2021/05/10 03:35:01;;;;;;;;;;;;;;;21.34;43.60;101829.56;5038808;28;884;-58
2021/05/10 03:37:26;;;;;;;;;;;;;;;21.16;43.99;101821.84;5040003;28;1252;-48
2021/05/10 03:39:52;;;;;;;;;;;;;;;21.15;43.83;101821.03;5034886;28;1326;-46
2021/05/10 03:42:17;;;;;;;;;;;;;;;21.35;43.53;101819.34;5038853;28;860;-58
2021/05/10 03:44:43;;;;;;;;;;;;;;;21.17;43.70;101821.56;5039044;28;1167;-45
2021/05/10 03:47:08;;;;;;;;;;;;;;;21.25;43.63;101825.72;5038681;28;768;-62
2021/05/10 03:49:33;;;;;;;;;;;;;;;21.18;43.76;101820.47;5038761;28;780;-49
2021/05/10 03:51:59;;;;;;;;;;;;;;;21.09;44.09;101829.63;5038394;28;1906;-62
2021/05/10 03:54:24;;;;;;;;;;;;;;;21.29;43.40;101828.75;5038361;28;848;-50
2021/05/10 03:56:50;;;;;;;;;;;;;;;21.26;43.54;101815.47;5038623;28;1163;-50
2021/05/10 03:59:15;;;;;;;;;;;;;;;;;;5037838;28;1062;-49
2021/05/10 04:01:40;;;;;;;;;;;;;;;21.24;43.72;101821.28;5038670;28;824;-60
2021/05/10 04:14:46;;;;;;;;;;;;;;;21.17;43.66;101835.41;5036690;28;760;-52
2021/05/10 04:17:11;;;;;;;;;;;;;;;21.06;44.16;101844.81;5038100;28;832;-58
2021/05/10 04:19:37;;;;;;;;;;;;;;;21.18;43.82;101831.53;5038021;28;1158;-60
2021/05/10 04:22:02;;;;;;;;;;;;;;;21.28;43.57;101830.69;5037725;28;1048;-51
2021/05/10 04:24:27;;;;;;;;;;;;;;;21.23;43.46;101840.94;5037803;28;832;-48
2021/05/10 04:26:53;;;;;;;;;;;;;;;21.37;43.43;101839.25;5038212;28;867;-49
2021/05/10 04:29:19;;;;;;;;;;;;;;;21.33;43.55;101833.41;5038227;28;854;-47
2021/05/10 04:31:44;;;;;;;;;;;;;;;21.08;43.93;101825.19;5037990;28;1906;-46
2021/05/10 04:34:09;;;;;;;;;;;;;;;21.31;43.36;101830.13;5038271;28;1150;-57
2021/05/10 04:36:35;;;;;;;;;;;;;;;21.35;43.38;101833.16;5037595;28;951;-48
2021/05/10 04:39:00;;;;;;;;;;;;;;;21.39;43.15;101831.47;5035969;28;1605;-51
2021/05/10 04:41:26;;;;;;;;;;;;;;;21.29;43.51;101832.31;5038019;28;799;-49
2021/05/10 04:43:51;;;;;;;;;;;;;;;21.61;42.65;101830.34;5037968;28;879;-59
2021/05/10 04:46:17;;;;;;;;;;;;;;;21.64;42.69;101835.31;5037279;28;867;-50
2021/05/10 04:48:42;;;;;;;;;;;;;;;21.70;42.63;101832.25;5038097;28;1048;-56
2021/05/10 04:51:08;;;;;;;;;;;;;;;21.83;42.10;101830.81;5037575;28;1906;-56
2021/05/10 04:53:33;;;;;;;;;;;;;;;21.83;42.19;101839.09;5037449;28;717;-50
2021/05/10 04:55:59;;;;;;;;;;;;;;;21.75;42.48;101831.38;5037763;28;776;-51
2021/05/10 04:58:24;;;;;;;;;;;;;;;21.89;41.97;101839.91;5037562;28;781;-48
2021/05/10 05:00:50;;;;;;;;;;;;;;;21.96;41.79;101829.34;5037137;28;725;-47
2021/05/10 05:03:15;;;;;;;;;;;;;;;21.83;42.43;101830.81;5037674;28;772;-49
2021/05/10 05:05:40;;;;;;;;;;;;;;;21.82;42.32;101829.13;5037076;28;974;-52
2021/05/10 05:08:06;;;;;;;;;;;;;;;22.03;42.01;101831.81;5036880;28;805;-46
2021/05/10 05:10:31;;;;;;;;;;;;;;;22.00;41.90;101829.63;5037282;28;1981;-47
2021/05/10 05:12:57;;;;;;;;;;;;;;;22.05;41.76;101835.13;5037426;28;768;-45
2021/05/10 05:15:22;;;;;;;;;;;;;;;21.92;42.14;101832.97;5037421;28;729;-50
2021/05/10 05:17:48;;;;;;;;;;;;;;;22.07;41.68;101835.66;5037588;28;790;-61
2021/05/10 05:20:13;;;;;;;;;;;;;;;22.15;41.72;101832.31;5036725;28;1055;-61
2021/05/10 05:22:39;;;;;;;;;;;;;;;22.28;41.46;101841.09;5036639;28;788;-46
2021/05/10 05:25:05;;;;;;;;;;;;;;;22.29;41.26;101829.72;5037124;28;812;-47
2021/05/10 05:27:30;;;;;;;;;;;;;;;22.18;41.61;101831.72;5036188;28;1083;-61
2021/05/10 05:29:55;;;;;;;;;;;;;;;22.17;41.71;101838.38;5036442;28;824;-56
2021/05/10 05:32:22;;;;;;;;;;;;;;;22.29;41.35;101838.03;5037379;28;1921;-60
2021/05/10 05:34:48;;;;;;;;;;;;;;;22.29;41.51;101842.75;5036990;28;795;-61
2021/05/10 05:37:14;;;;;;;;;;;;;;;22.41;41.08;101836.88;5036203;28;1006;-46
2021/05/10 05:39:39;;;;;;;;;;;;;;;22.34;41.21;101837.19;5036660;28;788;-50
2021/05/10 05:42:05;;;;;;;;;;;;;;;22.19;41.57;101836.16;5037105;28;752;-50
2021/05/10 05:44:34;;;;;;;;;;;;;;;22.34;41.50;101842.75;5036287;28;748;-61
2021/05/10 05:47:01;;;;;;;;;;;;;;;22.40;41.23;101844.38;5036873;28;840;-48
2021/05/10 05:49:27;;;;;;;;;;;;;;;22.38;41.19;101844.66;5036743;28;777;-55
2021/05/10 05:51:52;;;;;;;;;;;;;;;22.01;42.17;101853.44;5018592;28;1969;-50
2021/05/10 05:54:18;;;;;;;;;;;;;;;21.71;42.76;101846.91;5036443;28;758;-60
2021/05/10 05:56:43;;;;;;;;;;;;;;;21.66;42.83;101846.94;5036862;28;798;-51
2021/05/10 05:59:09;;;;;;;;;;;;;;;21.44;43.29;101850.00;5036251;28;748;-44
2021/05/10 06:01:34;;;;;;;;;;;;;;;21.47;43.58;101843.91;5036648;28;759;-63
2021/05/10 06:04:00;;;;;;;;;;;;;;;21.77;42.62;101839.41;5036684;28;760;-47
2021/05/10 06:06:25;;;;;;;;;;;;;;;22.10;41.96;101846.16;5017649;28;1127;-61
2021/05/10 06:08:51;;;;;;;;;;;;;;;22.17;41.64;101852.22;5036229;28;764;-50
2021/05/10 06:11:16;;;;;;;;;;;;;;;22.22;41.56;101849.44;5036139;28;1906;-45
2021/05/10 06:13:42;;;;;;;;;;;;;;;22.29;41.45;101848.31;5036504;28;820;-61
2021/05/10 06:16:07;;;;;;;;;;;;;;;22.41;41.26;101857.09;5035977;28;887;-61
2021/05/10 06:18:32;;;;;;;;;;;;;;;22.29;41.65;101848.31;5036057;28;756;-47
2021/05/10 06:21:02;;;;;;;;;;;;;;;22.42;41.39;101852.41;5030889;28;1004;-45
2021/05/10 06:23:27;;;;;;;;;;;;;;;22.46;41.27;101847.94;5016073;28;791;-48
2021/05/10 06:25:52;;;;;;;;;;;;;;;21.97;42.25;101849.56;5031591;28;898;-56
2021/05/10 06:28:18;;;;;;;;;;;;;;;21.91;42.61;101853.47;5016585;28;745;-51
2021/05/10 06:30:43;;;;;;;;;;;;;;;21.61;42.85;101846.94;5016015;28;1914;-56
2021/05/10 06:33:09;;;;;;;;;;;;;;;21.56;43.19;101855.25;5016206;28;1159;-53
2021/05/10 06:35:34;;;;;;;;;;;;;;;21.80;42.62;101847.16;5015990;28;967;-53
2021/05/10 06:37:59;;;;;;;;;;;;;;;22.06;42.21;101850.63;5019256;28;765;-64
2021/05/10 06:40:25;;;;;;;;;;;;;;;22.15;41.79;101837.84;5022596;28;752;-61
2021/05/10 06:42:50;;;;;;;;;;;;;;;22.25;41.61;101856.34;5022976;28;839;-63
2021/05/10 06:45:16;;;;;;;;;;;;;;;22.35;41.29;101853.53;5022389;28;840;-48
2021/05/10 06:47:42;;;;;;;;;;;;;;;22.36;41.25;101857.16;5022792;28;788;-62
2021/05/10 06:50:08;;;;;;;;;;;;;;;22.00;42.00;101857.31;5022598;28;1926;-60
2021/05/10 06:52:33;;;;;;;;;;;;;;;21.95;42.24;101862.88;5022247;28;811;-46
2021/05/10 06:54:59;;;;;;;;;;;;;;;21.50;43.23;101859.94;5022768;28;744;-53
2021/05/10 06:57:24;;;;;;;;;;;;;;;21.58;42.99;101861.34;5022848;28;776;-63
2021/05/10 06:59:50;;;;;;;;;;;;;;;21.77;42.67;101858.78;5022179;28;757;-59
2021/05/10 07:02:16;;;;;;;;;;;;;;;22.03;42.07;101865.03;5022499;28;757;-61
2021/05/10 07:04:41;;;;;;;;;;;;;;;21.94;42.33;101870.34;5023246;28;798;-64
2021/05/10 07:07:06;;;;;;;;;;;;;;;21.99;42.15;101873.13;5022060;28;950;-46
2021/05/10 07:09:32;;;;;;;;;;;;;;;22.19;41.67;101866.63;5022301;28;788;-47
2021/05/10 07:11:57;;;;;;;;;;;;;;;22.28;41.56;101871.56;5022943;28;1953;-49
2021/05/10 07:14:23;;;;;;;;;;;;;;;22.39;41.17;101875.97;5022081;28;757;-52
2021/05/10 07:16:48;;;;;;;;;;;;;;;22.09;41.60;101872.22;5022590;28;823;-56
2021/05/10 07:19:14;;;;;;;;;;;;;;;21.93;41.95;101873.41;5022986;28;865;-50
2021/05/10 07:21:39;;;;;;;;;;;;;;;21.60;42.45;101882.13;5037078;28;1170;-50
2021/05/10 07:24:05;;;;;;;;;;;;;;;21.61;42.59;101883.75;5042187;28;828;-53
2021/05/10 07:26:31;;;;;;;;;;;;;;;21.78;42.23;101883.41;5042911;28;768;-50
2021/05/10 07:28:56;;;;;;;;;;;;;;;22.00;41.69;101887.78;5041565;28;784;-48
2021/05/10 07:31:22;;;;;;;;;;;;;;;22.21;41.11;101881.00;5041989;28;1980;-59
2021/05/10 07:33:47;;;;;;;;;;;;;;;22.28;40.87;101879.88;5042006;28;1092;-49
2021/05/10 07:36:12;;;;;;;;;;;;;;;22.19;40.79;101880.47;5041171;28;947;-47
2021/05/10 07:38:38;;;;;;;;;;;;;;;21.70;42.06;101882.06;5042111;28;809;-51
2021/05/10 07:41:03;;;;;;;;;;;;;;;21.70;41.74;101882.06;5042123;28;780;-49
2021/05/10 07:43:29;;;;;;;;;;;;;;;21.42;42.41;101886.28;5041928;28;815;-59
2021/05/10 07:45:54;;;;;;;;;;;;;;;21.75;41.58;101886.75;5042168;28;816;-47
2021/05/10 07:48:20;;;;;;;;;;;;;;;21.85;41.36;101885.88;5041417;28;912;-48
2021/05/10 07:50:45;;;;;;;;;;;;;;;22.05;40.99;101890.53;5035808;28;1975;-58
2021/05/10 07:53:13;;;;;;;;;;;;;;;22.15;40.43;101892.44;5038985;28;1503;-58
2021/05/10 07:55:38;;;;;;;;;;;;;;;22.27;40.18;101889.31;5039019;28;747;-52
2021/05/10 07:58:04;;;;;;;;;;;;;;;22.36;40.03;101882.91;5038678;28;871;-50
2021/05/10 08:00:41;;;;;;;;;;;;;;;22.50;39.92;101885.06;5038891;28;768;-49
2021/05/10 08:03:15;;;;;;;;;;;;;;;22.03;40.81;101898.28;5038554;28;836;-47
2021/05/10 08:05:40;;;;;;;;;;;;;;;21.58;41.83;101889.84;5037926;28;1002;-58
2021/05/10 08:08:09;;;;;;;;;;;;;;;21.49;42.04;101892.34;5037562;28;1174;-42
2021/05/10 08:10:34;;;;;;;;;;;;;;;21.75;41.42;101883.16;5038320;28;1909;-44
2021/05/10 08:13:00;;;;;;;;;;;;;;;21.82;41.27;101890.03;5038539;28;790;-57
2021/05/10 08:15:25;;;;;;;;;;;;;;;21.98;41.13;101896.38;5038582;28;745;-47
2021/05/10 08:17:51;;;;;;;;;;;;;;;22.32;40.29;101886.50;5038248;28;768;-58
2021/05/10 08:20:16;;;;;;;;;;;;;;;22.41;40.20;101889.53;5020252;28;1143;-57
2021/05/10 08:22:42;;;;;;;;;;;;;;;21.99;41.02;101888.88;5038461;28;815;-57
2021/05/10 08:25:09;;;;;;;;;;;;;;;21.71;41.83;101882.88;5038457;28;823;-44
2021/05/10 08:27:35;;;;;;;;;;;;;;;21.43;42.51;101879.59;5038868;28;842;-44
2021/05/10 08:30:02;;;;;;;;;;;;;;;21.70;41.91;101884.03;5038445;28;811;-45
2021/05/10 08:32:27;;;;;;;;;;;;;;;21.81;41.80;101876.50;5037850;28;2006;-46
2021/05/10 08:34:52;;;;;;;;;;;;;;;22.05;41.08;101876.69;5037865;28;907;-46
2021/05/10 08:37:20;;;;;;;;;;;;;;;22.00;41.22;101879.47;5037786;28;1062;-44
2021/05/10 08:39:45;;;;;;;;;;;;;;;21.94;41.55;101880.63;5038053;28;764;-45
2021/05/10 08:42:11;;;;;;;;;;;;;;;21.86;41.68;101882.84;5038001;28;800;-55
2021/05/10 08:44:36;;;;;;;;;;;;;;;21.36;42.92;101881.84;5038021;28;845;-50
2021/05/10 08:47:02;;;;;;;;;;;;;;;21.28;43.40;101874.09;5038222;28;769;-54
2021/05/10 08:49:27;;;;;;;;;;;;;;;21.11;43.66;101883.53;5037512;28;815;-47
2021/05/10 08:51:53;;;;;;;;;;;;;;;21.36;43.02;101868.00;5037234;28;1902;-48
2021/05/10 08:54:19;;;;;;;;;;;;;;;21.57;42.52;101866.03;5037763;28;824;-43
2021/05/10 08:56:45;;;;;;;;;;;;;;;21.79;41.97;101870.41;5037440;28;764;-42
2021/05/10 08:59:10;;;;;;;;;;;;;;;21.95;41.50;101865.63;5037690;28;788;-42
2021/05/10 09:01:48;;;;;;;;;;;;;;;22.05;41.09;101868.38;5037387;28;824;-43
2021/05/10 09:04:14;;;;;;;;;;;;;;;22.13;40.93;101867.78;5037119;28;769;-58
2021/05/10 09:06:40;;;;;;;;;;;;;;;21.76;41.64;101863.50;5037339;28;947;-42
2021/05/10 09:09:09;;;;;;;;;;;;;;;22.08;40.82;101866.94;5037385;28;744;-58
2021/05/10 09:11:55;;;;;;;;;;;;;;;22.13;40.62;101856.69;5037345;28;1899;-51
2021/05/10 09:14:30;;;;;;;;;;;;;;;21.92;40.99;101861.50;5037107;28;1721;-42
2021/05/10 09:16:56;;;;;;;;;;;;;;;21.79;41.22;101853.81;5037428;28;835;-43
2021/05/10 09:19:38;;;;;;;;;;;;;;;21.63;41.62;101858.56;5036694;28;756;-54
2021/05/10 09:22:04;;;;;;;;;;;;;;;21.60;41.79;101856.34;5036698;28;1281;-52
2021/05/10 09:24:29;;;;;;;;;;;;;;;21.82;41.34;101851.28;5037215;28;855;-49
2021/05/10 09:26:54;;;;;;;;;;;;;;;21.86;41.18;101849.59;5036629;28;812;-49
2021/05/10 09:29:26;;;;;;;;;;;;;;;21.70;41.40;101848.03;5036178;28;788;-47
2021/05/10 09:31:52;;;;;;;;;;;;;;;21.94;41.07;101848.19;5036953;28;1918;-60
2021/05/10 09:34:19;;;;;;;;;;;;;;;21.96;40.71;101845.16;5036994;28;1093;-54
2021/05/10 09:36:45;;;;;;;;;;;;;;;21.90;40.84;101844.34;5036570;28;1010;-61
2021/05/10 09:39:38;;;;;;;;;;;;;;;21.66;41.26;101841.41;5019570;28;1186;-59
2021/05/10 09:42:06;;;;;;;;;;;;;;;21.75;40.98;101848.00;5036238;28;1277;-61
2021/05/10 09:44:58;;;;;;;;;;;;;;;21.45;41.66;101843.38;5036773;28;780;-60
2021/05/10 09:47:32;;;;;;;;;;;;;;;21.55;41.58;101829.53;5036348;28;1671;-61
2021/05/10 09:49:58;;;;;;;;;;;;;;;21.62;41.42;101834.78;5018985;28;1138;-51
2021/05/10 09:52:24;;;;;;;;;;;;;;;21.58;41.53;101833.69;5036293;28;2031;-46
2021/05/10 09:54:53;;;;;;;;;;;;;;;21.41;41.76;101834.81;5036464;28;740;-52
2021/05/10 09:57:19;;;;;;;;;;;;;;;21.51;41.58;101834.75;5018683;28;885;-60
2021/05/10 10:00:02;;;;;;;;;;;;;;;21.52;41.69;101830.91;5036781;28;753;-59
2021/05/10 10:02:34;;;;;;;;;;;;;;;21.60;41.38;101831.44;5036430;28;867;-56
2021/05/10 10:04:59;;;;;;;;;;;;;;;21.61;41.38;101828.38;5036184;28;810;-53
2021/05/10 10:07:25;;;;;;;;;;;;;;;21.53;41.36;101820.66;5035993;28;868;-59
2021/05/10 10:09:50;;;;;;;;;;;;;;;21.69;41.04;101824.22;5036573;28;796;-55
2021/05/10 10:12:15;;;;;;;;;;;;;;;21.67;41.05;101818.97;5050714;28;1975;-49
2021/05/10 10:14:42;;;;;;;;;;;;;;;21.60;41.16;101801.84;5036600;28;804;-63
2021/05/10 10:17:09;;;;;;;;;;;;;;;21.76;40.79;101801.78;5036171;28;743;-45
2021/05/10 10:19:35;;;;;;;;;;;;;;;21.64;41.20;101810.41;5051160;28;1237;-61
2021/05/10 10:22:00;;;;;;;;;;;;;;;21.77;40.85;101801.50;5036027;28;1198;-63
2021/05/10 10:24:25;;;;;;;;;;;;;;;21.70;41.00;101800.97;5051420;28;772;-62
2021/05/10 10:26:51;;;;;;;;;;;;;;;21.56;41.28;101797.13;5051632;28;788;-58
2021/05/10 10:29:17;;;;;;;;;;;;;;;21.81;40.62;101802.59;5051535;28;741;-61
2021/05/10 10:31:45;;;;;;;;;;;;;;;21.72;40.74;101784.09;5051238;28;1910;-48
2021/05/10 10:34:15;;;;;;;;;;;;;;;21.56;41.10;101786.91;5036252;28;1190;-63
2021/05/10 10:36:44;;;;;;;;;;;;;;;21.76;40.87;101788.75;5034534;28;1003;-47
2021/05/10 10:39:14;;;;;;;;;;;;;;;21.87;40.55;101787.59;5034741;28;824;-46
2021/05/10 10:41:56;;;;;;;;;;;;;;;21.36;41.61;101791.38;5036068;28;772;-49
2021/05/10 10:44:28;;;;;;;;;;;;;;;21.53;41.30;101781.94;5035970;28;807;-58
2021/05/10 10:46:54;;;;;;;;;;;;;;;22.02;40.46;101785.84;5036282;28;757;-45
2021/05/10 10:49:29;;;;;;;;;;;;;;;22.18;40.14;101784.63;5035921;28;732;-47
2021/05/10 10:51:55;;;;;;;;;;;;;;;22.16;40.22;101783.25;5035620;28;1977;-55
2021/05/10 10:54:21;;;;;;;;;;;;;;;22.12;40.29;101785.78;5035839;28;768;-57
2021/05/10 10:56:54;;;;;;;;;;;;;;;22.15;40.52;101787.97;5035840;28;977;-58
2021/05/10 10:59:22;;;;;;;;;;;;;;;22.08;40.36;101783.84;5036049;28;776;-58
2021/05/10 11:01:48;;;;;;;;;;;;;;;22.01;40.65;101771.16;5036160;28;791;-45
2021/05/10 11:04:23;;;;;;;;;;;;;;;22.00;40.64;101774.22;5035772;28;764;-58
2021/05/10 11:06:49;;;;;;;;;;;;;;;22.07;40.72;101776.69;5034940;28;943;-51
2021/05/10 11:09:14;;;;;;;;;;;;;;;22.25;40.39;101770.47;5036018;28;776;-45
2021/05/10 11:11:40;;;;;;;;;;;;;;;22.18;40.52;101756.94;5034544;28;1973;-59
2021/05/10 11:14:06;;;;;;;;;;;;;;;22.26;40.19;101757.41;5035913;28;975;-58
2021/05/10 11:16:45;;;;;;;;;;;;;;;22.20;40.28;101759.41;5036056;28;780;-55
2021/05/10 11:19:29;;;;;;;;;;;;;;;22.17;40.34;101746.94;5035345;28;859;-46
2021/05/10 11:21:55;;;;;;;;;;;;;;;22.21;40.27;101748.03;5034986;28;949;-45
2021/05/10 11:24:23;;;;;;;;;;;;;;;22.29;40.53;101741.06;5037634;28;756;-45
2021/05/10 11:26:53;;;;;;;;;;;;;;;22.37;40.35;101745.16;5039306;28;723;-46
2021/05/10 11:29:25;;;;;;;;;;;;;;;22.34;40.16;101741.06;5039239;28;831;-57
2021/05/10 11:31:54;;;;;;;;;;;;;;;22.03;41.12;101732.94;5039400;28;1906;-45
2021/05/10 11:34:23;;;;;;;;;;;;;;;22.19;40.43;101728.13;5038732;28;1100;-61
2021/05/10 11:36:49;;;;;;;;;;;;;;;22.15;40.63;101727.03;5039047;28;1042;-44
2021/05/10 11:39:23;;;;;;;;;;;;;;;22.19;40.54;101727.31;5039130;28;871;-47
2021/05/10 11:41:49;;;;;;;;;;;;;;;22.32;40.29;101720.25;5038787;28;783;-59
2021/05/10 11:44:18;;;;;;;;;;;;;;;22.30;40.28;101717.78;5038978;28;796;-47
2021/05/10 11:46:44;;;;;;;;;;;;;;;22.34;40.19;101712.50;5039124;28;827;-46
2021/05/10 11:49:11;;;;;;;;;;;;;;;22.31;40.29;101713.06;5038501;28;752;-47
2021/05/10 11:51:37;;;;;;;;;;;;;;;22.21;40.46;101712.03;5038820;28;1971;-45
2021/05/10 11:54:03;;;;;;;;;;;;;;;22.30;40.20;101711.41;5038971;28;824;-56
2021/05/10 11:56:29;;;;;;;;;;;;;;;22.33;40.14;101713.59;5038315;28;760;-62
2021/05/10 11:59:24;;;;;;;;;;;;;;;22.22;40.52;101708.13;5039045;28;895;-44
2021/05/10 12:01:41;;;;;;;;;;;;;;;22.38;39.98;101696.94;5038169;28;1357;-62
2021/05/10 12:04:20;;;;;;;;;;;;;;;22.22;40.32;101693.47;5038871;28;760;-60
2021/05/10 12:06:46;;;;;;;;;;;;;;;22.14;40.63;101697.69;5038543;28;947;-44
2021/05/10 12:09:35;;;;;;;;;;;;;;;22.19;40.40;101691.28;5038199;28;811;-59
2021/05/10 12:12:01;;;;;;;;;;;;;;;22.27;40.09;101685.09;5037969;28;1906;-44
2021/05/10 12:14:26;;;;;;;;;;;;;;;22.16;40.33;101678.84;5038875;28;796;-59
2021/05/10 12:17:07;;;;;;;;;;;;;;;22.38;40.02;101683.94;5038090;28;776;-43
2021/05/10 12:19:54;;;;;;;;;;;;;;;22.28;40.21;101685.94;5038316;28;816;-43
2021/05/10 12:22:20;;;;;;;;;;;;;;;22.20;40.14;101677.16;5038113;28;1266;-43
2021/05/10 12:24:57;;;;;;;;;;;;;;;22.25;39.93;101670.72;5037832;28;772;-43
2021/05/10 12:27:23;;;;;;;;;;;;;;;22.12;40.32;101683.31;5038718;28;748;-44
2021/05/10 12:29:49;;;;;;;;;;;;;;;22.21;40.17;101675.19;5038311;28;871;-44
2021/05/10 12:32:14;;;;;;;;;;;;;;;22.34;40.02;101668.16;5037766;28;1975;-61
2021/05/10 12:34:40;;;;;;;;;;;;;;;22.29;39.87;101662.66;5036899;28;799;-58
2021/05/10 12:37:05;;;;;;;;;;;;;;;22.25;40.16;101669.91;5036161;28;1014;-51
2021/05/10 12:39:32;;;;;;;;;;;;;;;22.36;39.67;101669.53;5037813;28;832;-44
2021/05/10 12:42:30;;;;;;;;;;;;;;;22.16;40.02;101662.22;5038087;28;832;-44
2021/05/10 12:44:56;;;;;;;;;;;;;;;22.24;39.92;101662.72;5036825;28;1396;-44
2021/05/10 12:47:38;;;;;;;;;;;;;;;22.40;39.73;101667.03;5037824;28;875;-59
2021/05/10 12:50:03;;;;;;;;;;;;;;;22.20;40.09;101668.84;5038050;28;967;-44
2021/05/10 12:52:29;;;;;;;;;;;;;;;22.38;39.55;101672.00;5016442;28;1910;-60
2021/05/10 12:54:56;;;;;;;;;;;;;;;22.34;39.76;101668.16;5017670;28;832;-44
2021/05/10 12:57:30;;;;;;;;;;;;;;;22.32;39.79;101671.22;5018176;28;842;-52
2021/05/10 12:59:56;;;;;;;;;;;;;;;22.16;40.06;101667.75;5018122;28;804;-44
2021/05/10 13:02:21;;;;;;;;;;;;;;;21.97;40.51;101677.88;5017826;28;739;-54
2021/05/10 13:04:47;;;;;;;;;;;;;;;21.88;40.73;101678.50;5017785;28;812;-43